Time;durP1;ratioP1;P1;durP2;ratioP2;P2;SDS_P1;SDS_P2;PMS_P1;PMS_P2;Temp;Humidity;BMP_temperature;BMP_pressure;BME280_temperature;BME280_humidity;BME280_pressure;Samples;Min_cycle;Max_cycle;Signal;HPM_P1;HPM_P2
2023/08/07 00:02:07;;;;;;;;;;;;;;;12.93;100.00;101255.44;5011037;28;19924;-73
2023/08/07 00:04:32;;;;;;;;;;;;;;;12.94;100.00;101243.69;5025860;28;19924;-75
2023/08/07 00:06:57;;;;;;;;;;;;;;;13.02;100.00;101245.75;5010402;28;20008;-76
2023/08/07 00:09:23;;;;;;;;;;;;;;;12.95;100.00;101253.47;4998071;28;19932;-75
2023/08/07 00:11:48;;;;;;;;;;;;;;;12.92;100.00;101252.84;5010421;28;19921;-76
2023/08/07 00:14:13;;;;;;;;;;;;;;;12.89;100.00;101257.50;5012287;28;19921;-74
2023/08/07 00:16:38;;;;;;;;;;;;;;;12.94;100.00;101257.16;5014609;28;19926;-75
2023/08/07 00:19:04;;;;;;;;;;;;;;;12.98;100.00;101245.13;5012746;28;19964;-76
2023/08/07 00:21:29;;;;;;;;;;;;;;;12.96;100.00;101246.25;5029862;28;20015;-72
2023/08/07 00:23:54;;;;;;;;;;;;;;;12.98;100.00;101244.28;5011657;28;19927;-74
2023/08/07 00:26:20;;;;;;;;;;;;;;;13.01;100.00;101238.63;5009880;28;19926;-73
2023/08/07 00:28:45;;;;;;;;;;;;;;;12.97;100.00;101240.75;5010889;28;19921;-75
2023/08/07 00:31:12;;;;;;;;;;;;;;;13.05;100.00;101237.41;5013670;28;19960;-81
2023/08/07 00:33:37;;;;;;;;;;;;;;;13.03;100.00;101242.06;5011448;28;19921;-77
2023/08/07 00:36:03;;;;;;;;;;;;;;;13.14;100.00;101244.72;5028253;28;20284;-78
2023/08/07 00:38:28;;;;;;;;;;;;;;;13.01;100.00;101255.66;5027800;28;20379;-75
2023/08/07 00:40:53;;;;;;;;;;;;;;;12.92;100.00;101255.53;5012082;28;19931;-76
2023/08/07 00:43:18;;;;;;;;;;;;;;;13.08;100.00;101253.34;5007915;28;19920;-72
2023/08/07 00:45:45;;;;;;;;;;;;;;;13.03;100.00;101239.38;5024171;28;19925;-71
2023/08/07 00:48:11;;;;;;;;;;;;;;;13.10;100.00;101245.97;5013489;28;19917;-71
2023/08/07 00:50:36;;;;;;;;;;;;;;;13.02;100.00;101238.50;5026411;28;19928;-72
2023/08/07 00:53:01;;;;;;;;;;;;;;;13.03;100.00;101236.69;5010470;28;19925;-75
2023/08/07 00:55:27;;;;;;;;;;;;;;;13.07;100.00;101245.34;5027624;28;20047;-73
2023/08/07 00:57:52;;;;;;;;;;;;;;;13.00;100.00;101248.53;5024174;28;20770;-71
2023/08/07 01:00:17;;;;;;;;;;;;;;;13.01;100.00;101235.94;5011086;28;20011;-71
2023/08/07 01:02:43;;;;;;;;;;;;;;;13.03;100.00;101240.22;5025846;28;19948;-74
2023/08/07 01:05:08;;;;;;;;;;;;;;;13.02;100.00;101237.66;5012821;28;20519;-74
2023/08/07 01:07:34;;;;;;;;;;;;;;;13.02;100.00;101245.75;5027215;28;19921;-73
2023/08/07 01:10:03;;;;;;;;;;;;;;;13.01;100.00;101250.25;5012893;28;20039;-74
2023/08/07 01:12:30;;;;;;;;;;;;;;;13.02;100.00;101243.88;5026665;28;20644;-72
2023/08/07 01:14:57;;;;;;;;;;;;;;;13.01;100.00;101254.81;5010355;28;19921;-74
2023/08/07 01:17:23;;;;;;;;;;;;;;;13.10;100.00;101253.19;5027555;28;19921;-72
2023/08/07 01:19:49;;;;;;;;;;;;;;;13.02;100.00;101260.06;5012955;28;20511;-75
2023/08/07 01:22:15;;;;;;;;;;;;;;;13.07;100.00;101259.72;5010981;28;19925;-74
2023/08/07 01:24:41;;;;;;;;;;;;;;;13.16;100.00;101256.22;5010850;28;19921;-76
2023/08/07 01:27:06;;;;;;;;;;;;;;;13.12;100.00;101249.38;5013049;28;20276;-75
2023/08/07 01:29:34;;;;;;;;;;;;;;;13.08;100.00;101253.34;5013613;28;19928;-72
2023/08/07 01:31:59;;;;;;;;;;;;;;;13.12;100.00;101268.25;5029150;28;19925;-73
2023/08/07 01:34:25;;;;;;;;;;;;;;;13.10;100.00;101272.94;5018277;28;19945;-73
2023/08/07 01:36:50;;;;;;;;;;;;;;;13.03;100.00;101269.88;5029304;28;19983;-72
2023/08/07 01:39:15;;;;;;;;;;;;;;;13.09;100.00;101273.91;5011484;28;20007;-74
2023/08/07 01:41:40;;;;;;;;;;;;;;;13.14;100.00;101266.28;5011162;28;19921;-77
2023/08/07 01:44:06;;;;;;;;;;;;;;;13.19;100.00;101261.38;5010086;28;19917;-75
2023/08/07 01:46:31;;;;;;;;;;;;;;;13.15;100.00;101264.47;5025670;28;19961;-75
2023/08/07 01:48:56;;;;;;;;;;;;;;;13.13;100.00;101269.13;5027918;28;19971;-74
2023/08/07 01:51:21;;;;;;;;;;;;;;;13.11;100.00;101273.78;5013114;28;20030;-74
2023/08/07 01:53:47;;;;;;;;;;;;;;;13.17;100.00;101278.69;5012505;28;20078;-72
2023/08/07 01:56:12;;;;;;;;;;;;;;;13.09;100.00;101275.75;5024086;28;20023;-76
2023/08/07 01:58:38;;;;;;;;;;;;;;;13.11;100.00;101271.94;5010571;28;19964;-74
2023/08/07 02:01:03;;;;;;;;;;;;;;;13.12;100.00;101283.59;4998073;28;19921;-73
2023/08/07 02:03:28;;;;;;;;;;;;;;;13.14;100.00;101276.22;5006991;28;19968;-73
2023/08/07 02:05:53;;;;;;;;;;;;;;;13.12;100.00;101284.41;5025104;28;20344;-74
2023/08/07 02:08:19;;;;;;;;;;;;;;;13.18;100.00;101281.22;5007963;28;20495;-75
2023/08/07 02:10:44;;;;;;;;;;;;;;;13.17;100.00;101287.59;5006721;28;19932;-75
2023/08/07 02:13:09;;;;;;;;;;;;;;;13.13;100.00;101278.06;5026970;28;19929;-74
2023/08/07 02:15:34;;;;;;;;;;;;;;;13.05;100.00;101284.06;5026982;28;20451;-73
2023/08/07 02:18:00;;;;;;;;;;;;;;;13.06;100.00;101284.94;5024989;28;19920;-74
2023/08/07 02:20:25;;;;;;;;;;;;;;;13.13;100.00;101288.84;5009293;28;20007;-71
2023/08/07 02:22:50;;;;;;;;;;;;;;;13.02;100.00;101289.72;5026392;28;20114;-73
2023/08/07 02:25:15;;;;;;;;;;;;;;;13.09;100.00;101300.00;5027301;28;19925;-71
2023/08/07 02:27:41;;;;;;;;;;;;;;;13.02;100.00;101288.88;5011177;28;19960;-72
2023/08/07 02:30:06;;;;;;;;;;;;;;;13.01;100.00;101292.53;5025062;28;20087;-74
2023/08/07 02:32:31;;;;;;;;;;;;;;;12.92;100.00;101295.97;5013157;28;20622;-75
2023/08/07 02:34:56;;;;;;;;;;;;;;;12.92;100.00;101304.94;4991920;28;19956;-78
2023/08/07 02:37:22;;;;;;;;;;;;;;;12.98;100.00;101304.41;5008840;28;19921;-74
2023/08/07 02:39:47;;;;;;;;;;;;;;;12.96;100.00;101297.44;5025412;28;20406;-72
2023/08/07 02:42:12;;;;;;;;;;;;;;;12.95;100.00;101293.91;5012447;28;19932;-74
2023/08/07 02:44:37;;;;;;;;;;;;;;;12.94;100.00;101300.28;5009739;28;20048;-76
2023/08/07 02:47:03;;;;;;;;;;;;;;;12.94;100.00;101299.41;5014669;28;19921;-74
2023/08/07 02:49:28;;;;;;;;;;;;;;;12.88;100.00;101298.91;4999623;28;19943;-73
2023/08/07 02:51:53;;;;;;;;;;;;;;;12.86;100.00;101300.88;5013258;28;19932;-72
2023/08/07 02:54:18;;;;;;;;;;;;;;;12.87;100.00;101297.19;5015669;28;19932;-75
2023/08/07 02:56:44;;;;;;;;;;;;;;;12.84;100.00;101286.69;5012680;28;20383;-78
2023/08/07 02:59:09;;;;;;;;;;;;;;;12.87;100.00;101299.03;5025929;28;20447;-73
2023/08/07 03:01:34;;;;;;;;;;;;;;;12.86;100.00;101303.56;5015558;28;20439;-74
2023/08/07 03:03:59;;;;;;;;;;;;;;;12.95;100.00;101299.28;5030295;28;20395;-74
2023/08/07 03:06:24;;;;;;;;;;;;;;;12.86;100.00;101295.47;5015480;28;19927;-74
2023/08/07 03:08:50;;;;;;;;;;;;;;;12.92;100.00;101298.66;5015001;28;19921;-73
2023/08/07 03:11:15;;;;;;;;;;;;;;;12.98;100.00;101300.88;5012147;28;19925;-74
2023/08/07 03:13:41;;;;;;;;;;;;;;;12.96;100.00;101294.75;5015833;28;20356;-73
2023/08/07 03:16:07;;;;;;;;;;;;;;;12.95;100.00;101293.03;5017859;28;20635;-75
2023/08/07 03:18:32;;;;;;;;;;;;;;;12.94;100.00;101288.63;5030614;28;20379;-75
2023/08/07 03:20:58;;;;;;;;;;;;;;;13.05;100.00;101275.16;5015269;28;19917;-73
2023/08/07 03:23:24;;;;;;;;;;;;;;;12.94;100.00;101286.81;5014806;28;20090;-72
2023/08/07 03:25:49;;;;;;;;;;;;;;;13.03;100.00;101288.72;4998386;28;20067;-76
2023/08/07 03:28:15;;;;;;;;;;;;;;;12.94;100.00;101284.09;5030416;28;19917;-72
2023/08/07 03:30:40;;;;;;;;;;;;;;;13.03;100.00;101285.19;5028658;28;20370;-75
2023/08/07 03:33:06;;;;;;;;;;;;;;;13.13;100.00;101283.44;4998487;28;20307;-71
2023/08/07 03:35:31;;;;;;;;;;;;;;;13.02;100.00;101281.63;5014067;28;20695;-74
2023/08/07 03:37:56;;;;;;;;;;;;;;;13.14;100.00;101278.91;5029769;28;19955;-73
2023/08/07 03:40:22;;;;;;;;;;;;;;;13.12;100.00;101267.41;5025158;28;19921;-75
2023/08/07 03:42:47;;;;;;;;;;;;;;;13.12;100.00;101272.78;5026899;28;19974;-77
2023/08/07 03:45:13;;;;;;;;;;;;;;;13.09;100.00;101271.22;5029541;28;19922;-74
2023/08/07 03:47:38;;;;;;;;;;;;;;;13.15;100.00;101268.00;5012442;28;19971;-73
2023/08/07 03:50:04;;;;;;;;;;;;;;;13.04;100.00;101278.81;5028316;28;19933;-75
2023/08/07 03:52:29;;;;;;;;;;;;;;;13.18;100.00;101272.31;5014475;28;19925;-74
2023/08/07 03:54:54;;;;;;;;;;;;;;;13.07;100.00;101278.56;5013033;28;19917;-73
2023/08/07 03:57:19;;;;;;;;;;;;;;;13.09;100.00;101286.53;5011109;28;21121;-73
2023/08/07 03:59:45;;;;;;;;;;;;;;;13.08;100.00;101288.38;5029599;28;19928;-71
2023/08/07 04:02:10;;;;;;;;;;;;;;;12.98;100.00;101287.41;5012554;28;20274;-72
2023/08/07 04:04:35;;;;;;;;;;;;;;;13.04;100.00;101286.91;5027441;28;20075;-73
2023/08/07 04:07:00;;;;;;;;;;;;;;;12.95;100.00;101293.91;5011718;28;19978;-76
2023/08/07 04:09:26;;;;;;;;;;;;;;;12.88;100.00;101279.22;5013514;28;20311;-73
2023/08/07 04:11:51;;;;;;;;;;;;;;;12.82;100.00;101287.78;4994773;28;20028;-80
2023/08/07 04:14:16;;;;;;;;;;;;;;;12.79;100.00;101275.41;5030477;28;19936;-76
2023/08/07 04:16:41;;;;;;;;;;;;;;;12.80;100.00;101290.59;5013193;28;20662;-77
2023/08/07 04:19:07;;;;;;;;;;;;;;;12.86;100.00;101287.41;5009875;28;20027;-75
2023/08/07 04:21:32;;;;;;;;;;;;;;;12.81;100.00;101291.44;5001218;28;19972;-76
2023/08/07 04:23:59;;;;;;;;;;;;;;;12.83;100.00;101297.56;4998768;28;20364;-73
2023/08/07 04:26:25;;;;;;;;;;;;;;;12.79;100.00;101296.09;5009113;28;20117;-72
2023/08/07 04:28:50;;;;;;;;;;;;;;;12.79;100.00;101299.66;5026153;28;19921;-78
2023/08/07 04:31:15;;;;;;;;;;;;;;;12.83;100.00;101301.16;5000619;28;20085;-75
2023/08/07 04:33:40;;;;;;;;;;;;;;;12.81;100.00;101300.41;5013252;28;20004;-77
2023/08/07 04:36:06;;;;;;;;;;;;;;;12.74;100.00;101320.72;5029183;28;20048;-77
2023/08/07 04:38:31;;;;;;;;;;;;;;;12.72;100.00;101320.84;5024567;28;20015;-75
2023/08/07 04:40:57;;;;;;;;;;;;;;;12.70;100.00;101327.34;5011456;28;20380;-74
2023/08/07 04:43:22;;;;;;;;;;;;;;;12.72;100.00;101318.13;5013121;28;20387;-76
2023/08/07 04:45:47;;;;;;;;;;;;;;;12.73;100.00;101321.72;5025802;28;20427;-74
2023/08/07 04:48:13;;;;;;;;;;;;;;;12.67;100.00;101317.66;5001876;28;22250;-76
2023/08/07 04:50:38;;;;;;;;;;;;;;;12.63;100.00;101326.97;5011495;28;19925;-73
2023/08/07 04:53:06;;;;;;;;;;;;;;;12.65;100.00;101327.72;5024440;28;19960;-77
2023/08/07 04:55:32;;;;;;;;;;;;;;;12.62;100.00;101327.94;5023696;28;20007;-77
2023/08/07 04:57:57;;;;;;;;;;;;;;;12.69;100.00;101328.31;5025950;28;19916;-74
2023/08/07 05:00:22;;;;;;;;;;;;;;;12.59;100.00;101334.41;4994952;28;19925;-75
2023/08/07 05:02:48;;;;;;;;;;;;;;;12.63;100.00;101336.88;5024160;28;19916;-76
2023/08/07 05:05:14;;;;;;;;;;;;;;;12.66;100.00;101336.63;4999195;28;20233;-74
2023/08/07 05:07:39;;;;;;;;;;;;;;;12.76;100.00;101340.31;5029530;28;20016;-74
2023/08/07 05:10:05;;;;;;;;;;;;;;;12.77;100.00;101343.88;5005098;28;20264;-73
2023/08/07 05:12:30;;;;;;;;;;;;;;;12.81;100.00;101340.81;5036628;28;19928;-73
2023/08/07 05:14:55;;;;;;;;;;;;;;;12.88;100.00;101335.81;5029471;28;20343;-74
2023/08/07 05:17:21;;;;;;;;;;;;;;;12.85;100.00;101336.03;5014233;28;19959;-75
2023/08/07 05:19:46;;;;;;;;;;;;;;;12.87;100.00;101334.94;5015017;28;20008;-74
2023/08/07 05:22:12;;;;;;;;;;;;;;;12.89;100.00;101351.00;5011783;28;20414;-76
2023/08/07 05:24:40;;;;;;;;;;;;;;;12.91;100.00;101351.72;5012484;28;19956;-71
2023/08/07 05:27:07;;;;;;;;;;;;;;;12.96;100.00;101346.84;5027443;28;20292;-74
2023/08/07 05:29:33;;;;;;;;;;;;;;;12.98;100.00;101354.78;5029659;28;20472;-73
2023/08/07 05:31:58;;;;;;;;;;;;;;;13.00;100.00;101359.06;5028215;28;20017;-74
2023/08/07 05:34:23;;;;;;;;;;;;;;;12.96;100.00;101349.53;5028717;28;19967;-73
2023/08/07 05:36:49;;;;;;;;;;;;;;;12.93;100.00;101363.25;5026950;28;20026;-75
2023/08/07 05:39:14;;;;;;;;;;;;;;;12.89;100.00;101359.06;5011994;28;19932;-76
2023/08/07 05:41:39;;;;;;;;;;;;;;;12.92;100.00;101360.66;5011375;28;19925;-74
2023/08/07 05:44:05;;;;;;;;;;;;;;;12.90;100.00;101366.19;5025360;28;19913;-74
2023/08/07 05:46:30;;;;;;;;;;;;;;;12.96;100.00;101378.31;5025985;28;19934;-77
2023/08/07 05:48:55;;;;;;;;;;;;;;;13.01;100.00;101373.41;5015174;28;20007;-76
2023/08/07 05:51:21;;;;;;;;;;;;;;;12.99;100.00;101370.81;5027433;28;19933;-77
2023/08/07 05:53:46;;;;;;;;;;;;;;;12.96;100.00;101384.56;5012434;28;20431;-77
2023/08/07 05:56:11;;;;;;;;;;;;;;;13.00;100.00;101383.31;5011592;28;19921;-74
2023/08/07 05:58:36;;;;;;;;;;;;;;;13.07;100.00;101380.13;5011365;28;20015;-74
2023/08/07 06:01:01;;;;;;;;;;;;;;;13.12;100.00;101386.88;5013122;28;20035;-75
2023/08/07 06:03:28;;;;;;;;;;;;;;;13.07;100.00;101374.75;5024719;28;19921;-75
2023/08/07 06:05:53;;;;;;;;;;;;;;;13.15;100.00;101383.09;5026292;28;19928;-75
2023/08/07 06:08:18;;;;;;;;;;;;;;;13.23;100.00;101379.75;5025762;28;20028;-72
2023/08/07 06:10:43;;;;;;;;;;;;;;;13.09;100.00;101376.34;5011357;28;20088;-82
2023/08/07 06:13:09;;;;;;;;;;;;;;;13.15;100.00;101388.47;4995812;28;19927;-80
2023/08/07 06:15:34;;;;;;;;;;;;;;;13.19;100.00;101388.09;5028099;28;19952;-79
2023/08/07 06:17:59;;;;;;;;;;;;;;;13.30;100.00;101386.38;5029699;28;19948;-87
2023/08/07 06:20:24;;;;;;;;;;;;;;;13.34;100.00;101388.69;5030245;28;19925;-79
2023/08/07 06:22:50;;;;;;;;;;;;;;;13.30;100.00;101389.94;5031991;28;20291;-80
2023/08/07 06:25:15;;;;;;;;;;;;;;;13.33;100.00;101392.38;5031175;28;19921;-77
2023/08/07 06:27:40;;;;;;;;;;;;;;;13.35;100.00;101394.97;5016187;28;19943;-77
2023/08/07 06:30:06;;;;;;;;;;;;;;;13.35;100.00;101395.81;5029362;28;20270;-75
2023/08/07 06:32:31;;;;;;;;;;;;;;;13.35;100.00;101401.22;5014302;28;20047;-75
2023/08/07 06:34:56;;;;;;;;;;;;;;;13.41;100.00;101399.88;5014874;28;20071;-74
2023/08/07 06:37:21;;;;;;;;;;;;;;;13.34;100.00;101404.88;5015662;28;19925;-74
2023/08/07 06:39:47;;;;;;;;;;;;;;;13.42;100.00;101404.28;5028888;28;19924;-74
2023/08/07 06:42:12;;;;;;;;;;;;;;;13.41;100.00;101417.91;5014108;28;19928;-76
2023/08/07 06:44:37;;;;;;;;;;;;;;;13.53;100.00;101429.53;5013930;28;20036;-73
2023/08/07 06:47:02;;;;;;;;;;;;;;;13.61;100.00;101425.25;5032577;28;19931;-74
2023/08/07 06:49:28;;;;;;;;;;;;;;;13.67;100.00;101426.56;5011692;28;20044;-71
2023/08/07 06:51:53;;;;;;;;;;;;;;;13.66;100.00;101432.94;5015571;28;19993;-75
2023/08/07 06:54:18;;;;;;;;;;;;;;;13.77;100.00;101435.63;5029213;28;19924;-75
2023/08/07 06:56:44;;;;;;;;;;;;;;;13.76;100.00;101436.63;5008581;28;19964;-76
2023/08/07 06:59:09;;;;;;;;;;;;;;;13.76;100.00;101439.31;5026880;28;19921;-75
2023/08/07 07:01:35;;;;;;;;;;;;;;;13.70;100.00;101425.47;5028838;28;19920;-75
2023/08/07 07:04:00;;;;;;;;;;;;;;;13.74;100.00;101438.59;5009299;28;19931;-75
2023/08/07 07:06:28;;;;;;;;;;;;;;;13.69;100.00;101438.09;5027927;28;19987;-74
2023/08/07 07:08:56;;;;;;;;;;;;;;;13.52;100.00;101428.66;5028315;28;19921;-74
2023/08/07 07:11:24;;;;;;;;;;;;;;;13.71;100.00;101454.19;5025246;28;20384;-75
2023/08/07 07:13:50;;;;;;;;;;;;;;;13.86;100.00;101447.50;5024407;28;20139;-75
2023/08/07 07:16:16;;;;;;;;;;;;;;;13.97;100.00;101451.19;5009970;28;19925;-75
2023/08/07 07:18:41;;;;;;;;;;;;;;;13.94;100.00;101452.28;5013138;28;20327;-73
2023/08/07 07:21:06;;;;;;;;;;;;;;;14.04;100.00;101449.66;5025868;28;20299;-75
2023/08/07 07:23:31;;;;;;;;;;;;;;;14.27;100.00;101446.91;5003895;28;20031;-73
2023/08/07 07:25:57;;;;;;;;;;;;;;;14.43;100.00;101454.59;5025890;28;19921;-79
2023/08/07 07:28:23;;;;;;;;;;;;;;;14.50;100.00;101451.22;5031451;28;20016;-74
2023/08/07 07:30:48;;;;;;;;;;;;;;;14.49;100.00;101456.75;5013200;28;19925;-75
2023/08/07 07:33:14;;;;;;;;;;;;;;;14.49;100.00;101451.34;5025913;28;19925;-72
2023/08/07 07:35:39;;;;;;;;;;;;;;;14.62;100.00;101464.66;5013324;28;19925;-72
2023/08/07 07:38:05;;;;;;;;;;;;;;;14.51;100.00;101460.16;5009930;28;19971;-73
2023/08/07 07:40:31;;;;;;;;;;;;;;;14.62;100.00;101468.25;5015697;28;20360;-74
2023/08/07 07:42:56;;;;;;;;;;;;;;;14.99;100.00;101470.50;5030421;28;19917;-74
2023/08/07 07:45:21;;;;;;;;;;;;;;;15.29;100.00;101476.06;5029210;28;20094;-73
2023/08/07 07:47:46;;;;;;;;;;;;;;;15.32;100.00;101467.69;5016842;28;19960;-72
2023/08/07 07:50:12;;;;;;;;;;;;;;;15.37;100.00;101475.41;4997744;28;20086;-71
2023/08/07 07:52:38;;;;;;;;;;;;;;;15.00;100.00;101483.03;5014501;28;20124;-72
2023/08/07 07:55:03;;;;;;;;;;;;;;;15.21;100.00;101484.00;5030926;28;19920;-73
2023/08/07 07:57:28;;;;;;;;;;;;;;;15.35;100.00;101480.94;5029277;28;19928;-74
2023/08/07 07:59:53;;;;;;;;;;;;;;;15.26;100.00;101482.59;5028766;28;19928;-72
2023/08/07 08:02:19;;;;;;;;;;;;;;;15.17;100.00;101486.13;5031055;28;20353;-72
2023/08/07 08:04:44;;;;;;;;;;;;;;;15.34;100.00;101492.75;5012213;28;20376;-73
2023/08/07 08:07:09;;;;;;;;;;;;;;;15.05;100.00;101498.88;5030576;28;19920;-72
2023/08/07 08:09:34;;;;;;;;;;;;;;;15.23;100.00;101485.56;5012470;28;19971;-75
2023/08/07 08:11:59;;;;;;;;;;;;;;;15.03;100.00;101489.16;5031323;28;20560;-75
2023/08/07 08:14:25;;;;;;;;;;;;;;;15.11;100.00;101492.06;5012932;28;19995;-74
2023/08/07 08:16:50;;;;;;;;;;;;;;;15.03;100.00;101497.28;5010531;28;20051;-72
2023/08/07 08:19:16;;;;;;;;;;;;;;;15.18;100.00;101497.78;5001504;28;20004;-73
2023/08/07 08:21:41;;;;;;;;;;;;;;;15.09;100.00;101504.84;5012153;28;19921;-74
2023/08/07 08:24:07;;;;;;;;;;;;;;;15.03;100.00;101505.38;5013649;28;20112;-72
2023/08/07 08:26:32;;;;;;;;;;;;;;;15.07;100.00;101504.13;5010495;28;20576;-75
2023/08/07 08:28:57;;;;;;;;;;;;;;;15.17;100.00;101510.47;5012790;28;20287;-73
2023/08/07 08:31:23;;;;;;;;;;;;;;;15.06;100.00;101508.69;5012045;28;20295;-72
2023/08/07 08:33:49;;;;;;;;;;;;;;;15.34;100.00;101513.53;5013734;28;19921;-72
2023/08/07 08:36:14;;;;;;;;;;;;;;;15.55;100.00;101511.63;5014162;28;20660;-72
2023/08/07 08:38:39;;;;;;;;;;;;;;;15.81;100.00;101513.03;5026949;28;20881;-71
2023/08/07 08:41:04;;;;;;;;;;;;;;;16.19;100.00;101509.59;5013547;28;20344;-72
2023/08/07 08:43:30;;;;;;;;;;;;;;;16.57;100.00;101512.47;5027606;28;20415;-71
2023/08/07 08:45:55;;;;;;;;;;;;;;;16.62;100.00;101501.19;5011977;28;20447;-73
2023/08/07 08:48:21;;;;;;;;;;;;;;;16.54;100.00;101510.03;5013240;28;20362;-74
2023/08/07 08:50:49;;;;;;;;;;;;;;;16.85;100.00;101500.88;5027827;28;19927;-72
2023/08/07 08:53:14;;;;;;;;;;;;;;;16.96;100.00;101505.31;5028551;28;19964;-71
2023/08/07 08:55:42;;;;;;;;;;;;;;;17.09;100.00;101504.00;5029688;28;20271;-73
2023/08/07 08:58:07;;;;;;;;;;;;;;;17.23;100.00;101493.72;5011596;28;19925;-74
2023/08/07 09:00:34;;;;;;;;;;;;;;;17.17;100.00;101508.72;5011147;28;20267;-73
2023/08/07 09:03:01;;;;;;;;;;;;;;;17.14;100.00;101508.13;5028929;28;20545;-72
2023/08/07 09:05:26;;;;;;;;;;;;;;;17.20;100.00;101515.72;5015119;28;19925;-72
2023/08/07 09:07:51;;;;;;;;;;;;;;;17.27;100.00;101515.97;5013237;28;19921;-72
2023/08/07 09:10:17;;;;;;;;;;;;;;;17.25;100.00;101516.13;5027365;28;20317;-73
2023/08/07 09:12:47;;;;;;;;;;;;;;;17.59;100.00;101522.84;5012798;28;19917;-72
2023/08/07 09:15:12;;;;;;;;;;;;;;;17.33;100.00;101535.25;5011224;28;19961;-73
2023/08/07 09:17:41;;;;;;;;;;;;;;;17.43;100.00;101510.78;5011346;28;20347;-73
2023/08/07 09:20:10;;;;;;;;;;;;;;;17.62;100.00;101523.41;5030748;28;20398;-71
2023/08/07 09:22:35;;;;;;;;;;;;;;;17.87;100.00;101534.63;5010311;28;19921;-75
2023/08/07 09:25:01;;;;;;;;;;;;;;;18.03;100.00;101530.41;5014145;28;19969;-72
2023/08/07 09:27:26;;;;;;;;;;;;;;;18.41;100.00;101529.28;5014490;28;19921;-72
2023/08/07 09:29:51;;;;;;;;;;;;;;;18.32;100.00;101543.78;5013063;28;19929;-74
2023/08/07 09:32:18;;;;;;;;;;;;;;;18.11;100.00;101535.94;5029991;28;19928;-73
2023/08/07 09:34:43;;;;;;;;;;;;;;;17.95;100.00;101531.13;5012473;28;20642;-72
2023/08/07 09:37:08;;;;;;;;;;;;;;;18.19;100.00;101538.72;5013620;28;19925;-75
2023/08/07 09:39:35;;;;;;;;;;;;;;;18.34;100.00;101536.34;5012180;28;19937;-72
2023/08/07 09:42:00;;;;;;;;;;;;;;;18.50;100.00;101532.94;5011889;28;19925;-72
2023/08/07 09:44:26;;;;;;;;;;;;;;;18.38;98.89;101536.91;5011117;28;19924;-74
2023/08/07 09:46:51;;;;;;;;;;;;;;;18.68;100.00;101537.50;5029769;28;19946;-72
2023/08/07 09:49:16;;;;;;;;;;;;;;;18.35;98.37;101539.94;5009075;28;20272;-75
2023/08/07 09:51:46;;;;;;;;;;;;;;;18.53;94.23;101534.50;5029500;28;20303;-78
2023/08/07 09:54:11;;;;;;;;;;;;;;;18.67;100.00;101530.41;5009307;28;19921;-72
2023/08/07 09:56:36;;;;;;;;;;;;;;;18.68;97.81;101543.81;5028443;28;19920;-74
2023/08/07 09:59:02;;;;;;;;;;;;;;;18.37;89.94;101537.91;5028604;28;19990;-73
2023/08/07 10:01:27;;;;;;;;;;;;;;;18.22;95.30;101556.63;5026937;28;19994;-72
2023/08/07 10:03:52;;;;;;;;;;;;;;;18.14;94.16;101554.66;5013941;28;19982;-73
2023/08/07 10:06:18;;;;;;;;;;;;;;;17.77;93.36;101552.81;5026439;28;19927;-74
2023/08/07 10:08:44;;;;;;;;;;;;;;;17.83;100.00;101560.38;5009367;28;19926;-74
2023/08/07 10:11:10;;;;;;;;;;;;;;;17.45;100.00;101562.19;5011107;28;19968;-73
2023/08/07 10:13:35;;;;;;;;;;;;;;;17.11;100.00;101566.28;5028427;28;20344;-74
2023/08/07 10:16:00;;;;;;;;;;;;;;;16.86;100.00;101573.09;5012730;28;20011;-74
2023/08/07 10:18:26;;;;;;;;;;;;;;;16.67;100.00;101568.56;5013369;28;19925;-76
2023/08/07 10:20:51;;;;;;;;;;;;;;;16.77;100.00;101580.25;5013952;28;19957;-75
2023/08/07 10:23:17;;;;;;;;;;;;;;;16.64;100.00;101584.09;5009319;28;20016;-79
2023/08/07 10:25:42;;;;;;;;;;;;;;;16.84;100.00;101583.22;5025135;28;20440;-74
2023/08/07 10:28:08;;;;;;;;;;;;;;;16.79;100.00;101592.69;5008498;28;20077;-73
2023/08/07 10:30:34;;;;;;;;;;;;;;;17.04;100.00;101598.56;5030036;28;19932;-71
2023/08/07 10:32:59;;;;;;;;;;;;;;;16.97;100.00;101593.81;5010267;28;20012;-77
2023/08/07 10:35:31;;;;;;;;;;;;;;;17.28;100.00;101582.81;5029339;28;19974;-75
2023/08/07 10:38:04;;;;;;;;;;;;;;;17.68;100.00;101592.56;5014998;28;20109;-73
2023/08/07 10:40:29;;;;;;;;;;;;;;;17.90;100.00;101593.22;5013832;28;19925;-73
2023/08/07 10:43:13;;;;;;;;;;;;;;;18.26;100.00;101587.91;5008444;28;19964;-72
2023/08/07 10:45:39;;;;;;;;;;;;;;;18.17;100.00;101586.94;5024947;28;19917;-72
2023/08/07 10:48:04;;;;;;;;;;;;;;;18.12;100.00;101587.41;4996347;28;19927;-72
2023/08/07 10:50:30;;;;;;;;;;;;;;;18.38;100.00;101596.72;5014717;28;19925;-73
2023/08/07 10:52:55;;;;;;;;;;;;;;;18.64;100.00;101595.97;5027859;28;19921;-73
2023/08/07 10:55:23;;;;;;;;;;;;;;;18.98;100.00;101596.16;5012742;28;20272;-73
2023/08/07 10:57:48;;;;;;;;;;;;;;;19.16;93.96;101587.97;5010838;28;20010;-73
2023/08/07 11:00:13;;;;;;;;;;;;;;;19.75;94.69;101587.31;5027608;28;20000;-72
2023/08/07 11:02:41;;;;;;;;;;;;;;;20.09;98.92;101585.66;5011811;28;20299;-72
2023/08/07 11:05:06;;;;;;;;;;;;;;;20.08;91.09;101586.66;5027167;28;19928;-71
2023/08/07 11:07:32;;;;;;;;;;;;;;;19.58;87.52;101586.38;5028545;28;19921;-72
2023/08/07 11:09:57;;;;;;;;;;;;;;;18.92;88.73;101604.06;5015065;28;20410;-74
2023/08/07 11:12:26;;;;;;;;;;;;;;;18.41;88.13;101601.81;5013993;28;19943;-73
2023/08/07 11:14:52;;;;;;;;;;;;;;;18.47;85.52;101603.09;5015586;28;20253;-73
2023/08/07 11:17:18;;;;;;;;;;;;;;;18.56;89.06;101610.31;5016770;28;19917;-76
2023/08/07 11:19:43;;;;;;;;;;;;;;;18.38;85.17;101608.44;5016133;28;19909;-74
2023/08/07 11:22:08;;;;;;;;;;;;;;;18.22;88.76;101611.81;5025678;28;19978;-73
2023/08/07 11:24:33;;;;;;;;;;;;;;;17.98;88.38;101605.06;5011390;28;20038;-72
2023/08/07 11:26:58;;;;;;;;;;;;;;;18.48;87.45;101621.97;5033945;28;20008;-72
2023/08/07 11:29:24;;;;;;;;;;;;;;;18.41;86.31;101619.00;5002544;28;20169;-75
2023/08/07 11:31:50;;;;;;;;;;;;;;;17.98;87.95;101617.78;5015783;28;19925;-74
2023/08/07 11:34:17;;;;;;;;;;;;;;;18.03;87.47;101617.34;4999178;28;20299;-75
2023/08/07 11:36:42;;;;;;;;;;;;;;;18.40;91.88;101621.88;5034029;28;19917;-74
2023/08/07 11:39:08;;;;;;;;;;;;;;;18.58;93.55;101619.19;5013720;28;19976;-74
2023/08/07 11:41:33;;;;;;;;;;;;;;;18.21;86.47;101618.25;4998991;28;20268;-76
2023/08/07 11:43:59;;;;;;;;;;;;;;;18.02;88.77;101621.06;5018343;28;19925;-73
2023/08/07 11:46:24;;;;;;;;;;;;;;;18.23;90.83;101616.25;5014395;28;19925;-72
2023/08/07 11:48:50;;;;;;;;;;;;;;;18.17;89.40;101618.72;5015544;28;19928;-73
2023/08/07 11:51:15;;;;;;;;;;;;;;;18.94;88.94;101610.16;5014836;28;19972;-74
2023/08/07 11:53:40;;;;;;;;;;;;;;;18.91;88.40;101600.47;5031156;28;19947;-74
2023/08/07 11:56:09;;;;;;;;;;;;;;;18.95;88.72;101610.06;5030404;28;19998;-75
2023/08/07 11:58:34;;;;;;;;;;;;;;;19.07;87.39;101618.84;5000661;28;19928;-75
2023/08/07 12:01:03;;;;;;;;;;;;;;;20.58;84.17;101612.19;5017978;28;19917;-74
2023/08/07 12:03:30;;;;;;;;;;;;;;;21.67;74.70;101612.09;5030355;28;20036;-74
2023/08/07 12:05:55;;;;;;;;;;;;;;;21.70;75.63;101600.81;5029978;28;19929;-74
2023/08/07 12:08:20;;;;;;;;;;;;;;;21.87;72.39;101598.88;5029980;28;19921;-72
2023/08/07 12:10:50;;;;;;;;;;;;;;;22.12;68.53;101606.13;5030331;28;19932;-72
2023/08/07 12:13:15;;;;;;;;;;;;;;;22.29;70.35;101605.00;4995076;28;20446;-74
2023/08/07 12:15:42;;;;;;;;;;;;;;;22.31;65.39;101605.69;5014437;28;19924;-76
2023/08/07 12:18:07;;;;;;;;;;;;;;;23.31;65.20;101597.66;5028871;28;19965;-76
2023/08/07 12:20:32;;;;;;;;;;;;;;;22.73;65.11;101606.31;5032346;28;20072;-74